Time;durP1;ratioP1;P1;durP2;ratioP2;P2;SDS_P1;SDS_P2;PMS_P1;PMS_P2;Temp;Humidity;BMP_temperature;BMP_pressure;BME280_temperature;BME280_humidity;BME280_pressure;Samples;Min_cycle;Max_cycle;Signal;HPM_P1;HPM_P2
2022/09/20 00:01:04;;;;;;;;;;;14.20;71.40;;;;;;5125356;27;19904;-71
2022/09/20 00:03:30;;;;;;;;;;;14.20;71.40;;;;;;5133138;27;20304;-71
2022/09/20 00:05:59;;;;;;;;;;;14.20;72.20;;;;;;5135906;27;19903;-71
2022/09/20 00:08:24;;;;;;;;;;;14.10;71.40;;;;;;5146339;27;20316;-71
2022/09/20 00:10:52;;;;;;;;;;;14.10;71.50;;;;;;5142798;27;19951;-71
2022/09/20 00:13:17;;;;;;;;;;;14.10;71.50;;;;;;5144173;27;19936;-71
2022/09/20 00:15:44;;;;;;;;;;;14.10;71.60;;;;;;5141997;27;19911;-70
2022/09/20 00:18:10;;;;;;;;;;;14.10;71.50;;;;;;5124001;27;19903;-70
2022/09/20 00:20:36;;;;;;;;;;;14.10;71.50;;;;;;5125177;27;19914;-71
2022/09/20 00:23:01;;;;;;;;;;;14.00;71.40;;;;;;5141850;27;20350;-70
2022/09/20 00:25:27;;;;;;;;;;;14.00;71.20;;;;;;5143119;27;19909;-71
2022/09/20 00:27:53;;;;;;;;;;;14.00;71.30;;;;;;5143250;27;19904;-70
2022/09/20 00:30:18;;;;;;;;;;;13.90;71.30;;;;;;5141461;27;20274;-70
2022/09/20 00:32:44;;;;;;;;;;;13.90;71.40;;;;;;5125107;27;20316;-70
2022/09/20 00:35:09;;;;;;;;;;;13.90;71.50;;;;;;5143066;27;19907;-71
2022/09/20 00:37:42;;;;;;;;;;;13.90;71.70;;;;;;5142383;27;20314;-70
2022/09/20 00:40:11;;;;;;;;;;;13.90;71.80;;;;;;5124112;27;19900;-72
2022/09/20 00:42:37;;;;;;;;;;;13.90;71.90;;;;;;5141605;27;19911;-71
2022/09/20 00:45:05;;;;;;;;;;;13.90;72.00;;;;;;5143964;27;19948;-71
2022/09/20 00:47:35;;;;;;;;;;;13.90;72.10;;;;;;5124489;27;19907;-71
2022/09/20 00:50:21;;;;;;;;;;;13.90;71.90;;;;;;5141446;27;19978;-71
2022/09/20 00:52:50;;;;;;;;;;;14.00;71.90;;;;;;5145971;27;20373;-71
2022/09/20 00:55:17;;;;;;;;;;;14.00;71.90;;;;;;5146603;27;19914;-71
2022/09/20 00:57:43;;;;;;;;;;;14.00;71.80;;;;;;5122398;27;20281;-71
2022/09/20 01:00:10;;;;;;;;;;;13.90;71.70;;;;;;5142252;27;20357;-72
2022/09/20 01:02:44;;;;;;;;;;;14.00;71.80;;;;;;5144152;27;19908;-72
2022/09/20 01:05:11;;;;;;;;;;;13.90;71.70;;;;;;5145600;27;19925;-72
2022/09/20 01:07:37;;;;;;;;;;;13.90;71.80;;;;;;5144448;27;19903;-71
2022/09/20 01:10:02;;;;;;;;;;;13.90;71.80;;;;;;5141371;27;19906;-72
2022/09/20 01:12:29;;;;;;;;;;;13.90;71.80;;;;;;5142596;27;19907;-71
2022/09/20 01:14:56;;;;;;;;;;;13.90;71.80;;;;;;5127223;27;19981;-72
2022/09/20 01:17:23;;;;;;;;;;;13.90;71.80;;;;;;5147396;27;19903;-71
2022/09/20 01:20:03;;;;;;;;;;;13.90;71.80;;;;;;5144939;27;19946;-71
2022/09/20 01:22:43;;;;;;;;;;;13.90;71.80;;;;;;5123392;27;19956;-72
2022/09/20 01:25:27;;;;;;;;;;;13.90;71.70;;;;;;5126228;27;19918;-71
2022/09/20 01:27:53;;;;;;;;;;;13.90;71.80;;;;;;5144870;27;19929;-71
2022/09/20 01:30:20;;;;;;;;;;;13.90;71.80;;;;;;5145990;27;20293;-71
2022/09/20 01:32:52;;;;;;;;;;;13.90;71.80;;;;;;5127747;27;20289;-71
2022/09/20 01:35:18;;;;;;;;;;;13.90;71.90;;;;;;5125541;27;20410;-71
2022/09/20 01:37:49;;;;;;;;;;;13.90;72.00;;;;;;5135583;27;19956;-71
2022/09/20 01:40:20;;;;;;;;;;;13.90;72.00;;;;;;5135644;27;20291;-69
2022/09/20 01:42:55;;;;;;;;;;;14.00;72.10;;;;;;5135470;27;20000;-69
2022/09/20 01:45:27;;;;;;;;;;;14.00;72.00;;;;;;5135466;27;20269;-71
2022/09/20 01:48:12;;;;;;;;;;;14.00;72.10;;;;;;5135322;27;20229;-70
2022/09/20 01:50:41;;;;;;;;;;;14.00;72.10;;;;;;5135696;27;19903;-71
2022/09/20 01:53:21;;;;;;;;;;;14.10;72.20;;;;;;5117008;27;19965;-71
2022/09/20 01:55:56;;;;;;;;;;;14.10;72.10;;;;;;5135258;27;20005;-71
2022/09/20 01:58:51;;;;;;;;;;;14.10;71.90;;;;;;5135498;27;20374;-71
2022/09/20 02:01:35;;;;;;;;;;;14.10;71.90;;;;;;5010264;27;19959;-72
2022/09/20 02:04:01;;;;;;;;;;;14.10;71.80;;;;;;5135132;27;20277;-71
2022/09/20 02:06:40;;;;;;;;;;;14.10;71.70;;;;;;5135114;27;19904;-69
2022/09/20 02:09:08;;;;;;;;;;;14.10;72.50;;;;;;5135156;27;20376;-71
2022/09/20 02:11:44;;;;;;;;;;;14.10;71.70;;;;;;5134945;27;20276;-71
2022/09/20 02:14:10;;;;;;;;;;;14.00;71.60;;;;;;5134755;27;19998;-71
2022/09/20 02:16:38;;;;;;;;;;;14.10;71.70;;;;;;5134860;27;20002;-71
2022/09/20 02:19:25;;;;;;;;;;;14.10;71.70;;;;;;5134754;27;19994;-71
2022/09/20 02:21:53;;;;;;;;;;;14.10;71.80;;;;;;5134808;27;20006;-70
2022/09/20 02:24:19;;;;;;;;;;;14.10;71.80;;;;;;5134756;27;20346;-70
2022/09/20 02:27:03;;;;;;;;;;;14.10;71.90;;;;;;5133815;27;19956;-71
2022/09/20 02:29:29;;;;;;;;;;;14.10;71.90;;;;;;5116095;27;20384;-71
2022/09/20 02:31:55;;;;;;;;;;;14.10;71.90;;;;;;5134385;27;19915;-71
2022/09/20 02:34:39;;;;;;;;;;;14.10;71.90;;;;;;5134787;27;20315;-71
2022/09/20 02:37:13;;;;;;;;;;;14.20;72.00;;;;;;5134407;27;19911;-71
2022/09/20 02:39:47;;;;;;;;;;;14.10;71.90;;;;;;5134324;27;19907;-70
2022/09/20 02:42:45;;;;;;;;;;;14.20;72.00;;;;;;5134604;27;19904;-70
2022/09/20 02:45:30;;;;;;;;;;;14.20;72.10;;;;;;5067062;27;19907;-71
2022/09/20 02:47:58;;;;;;;;;;;14.20;72.00;;;;;;5133601;27;20288;-71
2022/09/20 02:50:41;;;;;;;;;;;14.20;71.90;;;;;;5134208;27;19915;-71
2022/09/20 02:53:25;;;;;;;;;;;14.20;72.10;;;;;;5134118;27;19903;-70
2022/09/20 02:56:09;;;;;;;;;;;14.20;71.90;;;;;;5134099;27;20251;-70
2022/09/20 02:58:53;;;;;;;;;;;14.20;71.90;;;;;;5134149;27;20306;-71
2022/09/20 03:01:41;;;;;;;;;;;14.20;71.80;;;;;;5134001;27;19953;-70
2022/09/20 03:04:22;;;;;;;;;;;14.20;71.80;;;;;;5133995;27;19998;-71
2022/09/20 03:07:06;;;;;;;;;;;14.10;71.60;;;;;;5115289;27;19925;-70
2022/09/20 03:09:37;;;;;;;;;;;14.10;71.60;;;;;;5133896;27;20299;-70
2022/09/20 03:12:08;;;;;;;;;;;14.10;71.60;;;;;;5133943;27;19904;-71
2022/09/20 03:14:34;;;;;;;;;;;14.10;71.70;;;;;;5133746;27;19929;-70
2022/09/20 03:17:01;;;;;;;;;;;14.10;71.80;;;;;;5133452;27;19907;-71
2022/09/20 03:19:45;;;;;;;;;;;14.10;71.90;;;;;;5133535;27;20006;-70
2022/09/20 03:22:16;;;;;;;;;;;14.10;72.00;;;;;;5133410;27;19986;-70
2022/09/20 03:25:00;;;;;;;;;;;14.10;72.10;;;;;;5133459;27;20007;-71
2022/09/20 03:27:32;;;;;;;;;;;14.10;72.10;;;;;;5133655;27;19934;-71
2022/09/20 03:30:08;;;;;;;;;;;14.20;72.20;;;;;;5133648;27;19903;-70
2022/09/20 03:33:00;;;;;;;;;;;14.20;72.20;;;;;;5132614;27;19922;-70
2022/09/20 03:35:35;;;;;;;;;;;14.20;72.30;;;;;;5129256;27;20447;-70
2022/09/20 03:38:03;;;;;;;;;;;14.20;72.10;;;;;;5133392;27;19915;-71
2022/09/20 03:40:35;;;;;;;;;;;14.30;72.20;;;;;;5133473;27;20357;-70
2022/09/20 03:43:12;;;;;;;;;;;14.30;72.10;;;;;;5133415;27;19907;-70
2022/09/20 03:45:43;;;;;;;;;;;14.30;72.00;;;;;;5133747;27;19903;-71
2022/09/20 03:48:28;;;;;;;;;;;14.30;72.00;;;;;;5133347;27;19903;-71
2022/09/20 03:51:19;;;;;;;;;;;14.30;72.00;;;;;;5133291;27;20409;-70
2022/09/20 03:54:03;;;;;;;;;;;14.40;72.00;;;;;;5133281;27;19910;-70
2022/09/20 03:56:47;;;;;;;;;;;14.40;72.00;;;;;;5132883;27;19915;-71
2022/09/20 03:59:20;;;;;;;;;;;14.40;72.00;;;;;;5114752;28;20315;-70
2022/09/20 04:02:06;;;;;;;;;;;14.40;72.10;;;;;;5133077;28;20299;-70
2022/09/20 04:04:37;;;;;;;;;;;14.40;72.00;;;;;;5133183;28;19907;-70
2022/09/20 04:07:15;;;;;;;;;;;14.40;72.00;;;;;;5133234;28;19903;-70
2022/09/20 04:09:59;;;;;;;;;;;14.50;72.10;;;;;;5133117;28;19903;-70
2022/09/20 04:12:39;;;;;;;;;;;14.50;72.10;;;;;;5133009;28;19908;-70
2022/09/20 04:15:11;;;;;;;;;;;14.50;72.10;;;;;;5132997;28;19912;-70
2022/09/20 04:17:55;;;;;;;;;;;14.50;71.90;;;;;;5132789;28;19903;-70
2022/09/20 04:20:27;;;;;;;;;;;14.50;71.90;;;;;;5132922;28;19903;-70
2022/09/20 04:22:54;;;;;;;;;;;14.50;71.80;;;;;;5114430;28;19956;-70
2022/09/20 04:25:26;;;;;;;;;;;14.50;71.80;;;;;;5132794;28;20354;-70
2022/09/20 04:27:55;;;;;;;;;;;14.50;71.60;;;;;;5132775;28;20358;-71
2022/09/20 04:30:31;;;;;;;;;;;14.50;71.60;;;;;;5132686;28;19904;-71
2022/09/20 04:33:02;;;;;;;;;;;14.50;71.70;;;;;;5132317;27;20358;-70
2022/09/20 04:38:27;;;;;;;;;;;14.50;71.60;;;;;;5132935;28;19968;-70
2022/09/20 04:40:56;;;;;;;;;;;14.50;71.60;;;;;;5132827;28;19990;-70
2022/09/20 04:43:36;;;;;;;;;;;14.50;71.50;;;;;;5132736;28;20311;-70
2022/09/20 04:46:15;;;;;;;;;;;14.50;71.40;;;;;;5132451;28;20306;-71
2022/09/20 04:48:55;;;;;;;;;;;14.50;71.40;;;;;;5133340;27;19899;-70
2022/09/20 04:51:41;;;;;;;;;;;14.50;71.40;;;;;;5136567;27;19907;-70
2022/09/20 04:54:19;;;;;;;;;;;14.50;71.40;;;;;;5136493;27;19904;-71
2022/09/20 04:56:56;;;;;;;;;;;14.50;71.40;;;;;;5136312;27;19998;-70
2022/09/20 04:59:52;;;;;;;;;;;14.50;71.30;;;;;;5136228;27;19911;-70
2022/09/20 05:02:41;;;;;;;;;;;14.50;71.20;;;;;;5110989;27;19903;-70
2022/09/20 05:05:25;;;;;;;;;;;14.40;71.00;;;;;;5075851;27;19910;-70
2022/09/20 05:08:09;;;;;;;;;;;14.40;71.00;;;;;;5136269;27;20304;-70
2022/09/20 05:10:54;;;;;;;;;;;14.40;71.00;;;;;;5136046;27;19904;-70
2022/09/20 05:13:20;;;;;;;;;;;14.30;70.90;;;;;;5135998;27;19952;-70
2022/09/20 05:16:09;;;;;;;;;;;14.30;71.00;;;;;;5117215;27;19973;-70
2022/09/20 05:18:38;;;;;;;;;;;14.30;71.00;;;;;;5135742;27;19907;-70
2022/09/20 05:21:09;;;;;;;;;;;14.30;71.10;;;;;;5135917;27;20316;-70
2022/09/20 05:23:38;;;;;;;;;;;14.30;71.10;;;;;;5135684;27;19903;-70
2022/09/20 05:26:07;;;;;;;;;;;14.20;71.10;;;;;;5135786;27;20315;-70
2022/09/20 05:28:38;;;;;;;;;;;14.20;71.20;;;;;;5135720;27;19986;-70
2022/09/20 05:31:19;;;;;;;;;;;14.20;71.20;;;;;;5143913;27;19946;-71
2022/09/20 05:33:51;;;;;;;;;;;14.30;71.30;;;;;;5156299;27;20358;-71
2022/09/20 05:36:42;;;;;;;;;;;14.30;71.40;;;;;;5156135;27;20390;-71
2022/09/20 05:39:13;;;;;;;;;;;14.30;71.50;;;;;;5140653;27;19969;-70
2022/09/20 05:41:45;;;;;;;;;;;14.40;71.70;;;;;;5135260;27;19899;-70
2022/09/20 05:44:30;;;;;;;;;;;14.40;71.80;;;;;;5117306;27;20296;-70
2022/09/20 05:47:04;;;;;;;;;;;14.40;71.80;;;;;;5135236;27;19903;-70
2022/09/20 05:49:59;;;;;;;;;;;14.50;71.70;;;;;;5134939;27;19904;-70
2022/09/20 05:53:00;;;;;;;;;;;14.50;71.70;;;;;;5132600;27;19911;-70
2022/09/20 05:55:45;;;;;;;;;;;14.50;71.70;;;;;;5051740;28;19908;-70
2022/09/20 05:58:30;;;;;;;;;;;14.60;71.70;;;;;;5051460;28;20407;-70
2022/09/20 06:01:17;;;;;;;;;;;14.60;71.80;;;;;;5043276;28;19963;-70
2022/09/20 06:03:47;;;;;;;;;;;14.60;71.80;;;;;;5045010;28;19916;-70
2022/09/20 06:06:25;;;;;;;;;;;14.70;71.70;;;;;;5034111;28;19964;-71
2022/09/20 06:09:05;;;;;;;;;;;14.70;71.50;;;;;;5044972;28;19932;-70
2022/09/20 06:11:49;;;;;;;;;;;14.80;72.30;;;;;;5041914;28;19916;-70
2022/09/20 06:14:15;;;;;;;;;;;14.80;71.70;;;;;;5042024;28;19988;-70
2022/09/20 06:16:43;;;;;;;;;;;14.90;71.70;;;;;;5042779;28;20043;-70
2022/09/20 06:19:19;;;;;;;;;;;14.90;72.50;;;;;;5024662;28;20346;-70
2022/09/20 06:21:54;;;;;;;;;;;14.90;71.50;;;;;;5031133;28;19916;-70
2022/09/20 06:24:38;;;;;;;;;;;15.00;71.40;;;;;;5043401;28;19912;-70
2022/09/20 06:27:07;;;;;;;;;;;15.00;71.50;;;;;;5042185;28;19971;-71
2022/09/20 06:29:34;;;;;;;;;;;15.00;71.30;;;;;;5101682;27;19942;-71
2022/09/20 06:32:00;;;;;;;;;;;15.00;71.30;;;;;;5121460;27;19915;-70
2022/09/20 06:34:27;;;;;;;;;;;15.00;71.20;;;;;;5155268;27;19940;-70
2022/09/20 06:42:37;;;;;;;;;;;15.10;71.20;;;;;;5156170;27;19910;-70
2022/09/20 06:45:03;;;;;;;;;;;15.20;71.40;;;;;;5134872;27;20290;-70
2022/09/20 06:47:28;;;;;;;;;;;15.20;71.30;;;;;;5135136;27;19907;-70
2022/09/20 06:49:55;;;;;;;;;;;15.20;71.00;;;;;;5135246;27;19998;-70
2022/09/20 06:52:21;;;;;;;;;;;15.20;70.90;;;;;;5135188;27;19908;-70
2022/09/20 06:54:49;;;;;;;;;;;15.30;71.10;;;;;;5134998;27;19903;-70
2022/09/20 06:57:17;;;;;;;;;;;15.30;71.00;;;;;;5123102;27;19903;-70
2022/09/20 06:59:42;;;;;;;;;;;15.30;71.00;;;;;;5155750;27;19994;-70
2022/09/20 07:02:09;;;;;;;;;;;15.40;71.20;;;;;;5155539;27;20353;-70
2022/09/20 07:04:35;;;;;;;;;;;15.40;71.10;;;;;;5136957;27;19910;-70
2022/09/20 07:07:01;;;;;;;;;;;15.50;71.30;;;;;;5155585;27;19903;-70
2022/09/20 07:09:27;;;;;;;;;;;15.50;71.40;;;;;;5155563;27;19903;-70
2022/09/20 07:11:54;;;;;;;;;;;15.60;71.50;;;;;;5155111;27;19903;-70
2022/09/20 07:14:19;;;;;;;;;;;15.70;71.70;;;;;;5155519;27;19910;-70
2022/09/20 07:16:45;;;;;;;;;;;15.80;71.70;;;;;;5136812;27;19906;-70
2022/09/20 07:19:11;;;;;;;;;;;15.90;71.40;;;;;;5155259;27;19956;-70
2022/09/20 07:21:36;;;;;;;;;;;16.00;71.20;;;;;;5155382;27;19903;-71
2022/09/20 07:24:02;;;;;;;;;;;16.00;70.90;;;;;;5138074;27;19903;-70
2022/09/20 07:26:29;;;;;;;;;;;16.10;70.30;;;;;;5134555;27;19911;-68
2022/09/20 07:28:55;;;;;;;;;;;16.10;70.10;;;;;;5134326;27;19903;-68
2022/09/20 07:31:21;;;;;;;;;;;16.20;70.20;;;;;;5134136;27;19959;-71
2022/09/20 07:33:48;;;;;;;;;;;16.30;70.00;;;;;;5134179;27;19914;-71
2022/09/20 07:36:14;;;;;;;;;;;16.30;69.80;;;;;;5134025;27;19907;-68
2022/09/20 07:38:40;;;;;;;;;;;16.40;69.50;;;;;;5115834;27;19904;-68
2022/09/20 07:41:06;;;;;;;;;;;16.50;69.30;;;;;;5134299;27;20354;-71
2022/09/20 07:43:32;;;;;;;;;;;16.60;69.30;;;;;;5134265;27;19910;-68
2022/09/20 07:45:58;;;;;;;;;;;16.60;68.60;;;;;;5134174;27;19910;-69
2022/09/20 07:48:25;;;;;;;;;;;16.70;68.70;;;;;;5119032;27;19907;-68
2022/09/20 07:50:55;;;;;;;;;;;16.80;68.40;;;;;;5154936;27;20425;-70
2022/09/20 07:53:21;;;;;;;;;;;16.80;68.20;;;;;;5154808;27;19936;-70
2022/09/20 07:56:19;;;;;;;;;;;16.90;68.30;;;;;;5154752;27;20269;-70
2022/09/20 07:58:46;;;;;;;;;;;17.00;68.40;;;;;;5050694;28;20426;-70
2022/09/20 08:01:12;;;;;;;;;;;17.00;68.00;;;;;;5050745;28;20318;-70
2022/09/20 08:03:38;;;;;;;;;;;17.10;67.60;;;;;;5034085;28;19905;-71
2022/09/20 08:06:10;;;;;;;;;;;17.10;67.50;;;;;;5050829;28;19904;-70
2022/09/20 08:08:37;;;;;;;;;;;17.00;67.40;;;;;;5050692;28;19904;-70
2022/09/20 08:11:07;;;;;;;;;;;16.80;67.40;;;;;;5050772;28;19905;-70
2022/09/20 08:13:36;;;;;;;;;;;16.70;67.90;;;;;;5050611;28;20363;-71
2022/09/20 08:16:02;;;;;;;;;;;16.50;68.20;;;;;;5050602;28;19908;-71
2022/09/20 08:18:28;;;;;;;;;;;16.30;68.20;;;;;;5050621;28;19909;-71
2022/09/20 08:20:54;;;;;;;;;;;16.00;68.10;;;;;;5050620;28;20032;-69
2022/09/20 08:23:20;;;;;;;;;;;15.90;68.00;;;;;;5050934;28;19909;-68
2022/09/20 08:25:47;;;;;;;;;;;15.70;68.20;;;;;;5054592;28;19900;-68
2022/09/20 08:28:12;;;;;;;;;;;15.50;68.70;;;;;;5037929;28;19905;-70
2022/09/20 08:30:38;;;;;;;;;;;15.40;69.30;;;;;;5054531;28;19904;-70
2022/09/20 08:33:05;;;;;;;;;;;15.30;69.80;;;;;;5054447;28;19952;-71
2022/09/20 08:35:34;;;;;;;;;;;15.30;70.20;;;;;;5158515;27;19907;-71
2022/09/20 08:37:59;;;;;;;;;;;15.30;70.50;;;;;;5158586;27;19905;-71
2022/09/20 08:40:27;;;;;;;;;;;15.40;70.60;;;;;;5149089;27;20267;-71
2022/09/20 08:42:53;;;;;;;;;;;15.40;71.30;;;;;;5137613;27;19903;-71
2022/09/20 08:45:23;;;;;;;;;;;15.30;70.50;;;;;;5119346;27;19903;-71
2022/09/20 08:47:54;;;;;;;;;;;15.40;70.60;;;;;;5138010;27;20346;-71
2022/09/20 08:50:19;;;;;;;;;;;15.30;70.70;;;;;;5137634;27;19908;-71
2022/09/20 08:52:47;;;;;;;;;;;15.40;71.00;;;;;;5137644;27;19926;-72
2022/09/20 08:55:18;;;;;;;;;;;15.40;71.30;;;;;;5137566;27;19908;-71
2022/09/20 08:57:47;;;;;;;;;;;15.40;70.90;;;;;;5119168;27;19903;-72
2022/09/20 09:00:16;;;;;;;;;;;15.40;70.50;;;;;;5137586;27;19899;-72
2022/09/20 09:02:42;;;;;;;;;;;15.50;70.40;;;;;;5137502;27;19903;-72
2022/09/20 09:05:30;;;;;;;;;;;15.50;70.50;;;;;;5137282;27;19899;-71
2022/09/20 09:07:57;;;;;;;;;;;15.50;70.50;;;;;;5122491;27;19913;-71
2022/09/20 09:10:23;;;;;;;;;;;15.50;70.60;;;;;;5137617;27;19899;-72
2022/09/20 09:12:50;;;;;;;;;;;15.50;70.70;;;;;;5137276;27;19903;-72
2022/09/20 09:15:21;;;;;;;;;;;15.60;71.40;;;;;;5137045;27;19907;-71
2022/09/20 09:17:47;;;;;;;;;;;15.80;71.60;;;;;;5137156;27;19903;-71
2022/09/20 09:20:13;;;;;;;;;;;16.00;71.80;;;;;;5137123;27;20378;-72
2022/09/20 09:22:42;;;;;;;;;;;16.20;71.90;;;;;;5137056;27;19904;-72
2022/09/20 09:25:11;;;;;;;;;;;16.40;72.10;;;;;;5136908;27;20350;-71
2022/09/20 09:27:49;;;;;;;;;;;16.70;72.30;;;;;;5136973;27;19910;-72
2022/09/20 09:30:26;;;;;;;;;;;16.90;71.90;;;;;;5136877;27;19943;-72
2022/09/20 09:32:52;;;;;;;;;;;17.10;71.30;;;;;;5136463;27;20404;-72
2022/09/20 09:35:29;;;;;;;;;;;17.30;70.40;;;;;;5136552;27;20422;-71
2022/09/20 09:37:59;;;;;;;;;;;17.40;69.70;;;;;;5136853;27;19911;-72
2022/09/20 09:40:26;;;;;;;;;;;17.50;69.20;;;;;;5136671;27;19910;-71
2022/09/20 09:42:54;;;;;;;;;;;17.50;68.40;;;;;;5136584;27;19911;-71
2022/09/20 09:45:25;;;;;;;;;;;17.60;68.00;;;;;;5136733;27;20308;-71
2022/09/20 09:47:51;;;;;;;;;;;17.60;67.70;;;;;;5136573;27;19910;-71
2022/09/20 09:50:25;;;;;;;;;;;17.60;67.70;;;;;;5136589;27;20001;-71
2022/09/20 09:53:02;;;;;;;;;;;17.60;67.40;;;;;;5136536;27;19947;-71
2022/09/20 09:55:50;;;;;;;;;;;17.60;66.90;;;;;;5136406;27;19915;-71
2022/09/20 09:58:39;;;;;;;;;;;17.60;66.50;;;;;;5076238;27;19998;-71
2022/09/20 10:01:06;;;;;;;;;;;17.60;66.60;;;;;;5135847;27;19903;-71
2022/09/20 10:03:52;;;;;;;;;;;17.60;66.60;;;;;;5136588;27;19986;-71
2022/09/20 10:06:18;;;;;;;;;;;17.70;66.60;;;;;;5136606;27;19907;-71
2022/09/20 10:08:43;;;;;;;;;;;17.70;66.40;;;;;;5136321;27;19910;-71
2022/09/20 10:11:17;;;;;;;;;;;17.80;66.30;;;;;;5136177;27;20040;-71
2022/09/20 10:13:49;;;;;;;;;;;17.80;65.80;;;;;;5136240;27;19909;-71
2022/09/20 10:16:30;;;;;;;;;;;17.90;65.70;;;;;;5136057;27;19907;-71
2022/09/20 10:19:15;;;;;;;;;;;17.90;65.40;;;;;;5135937;27;20277;-71
2022/09/20 10:21:47;;;;;;;;;;;18.10;65.40;;;;;;5136022;27;19952;-71
2022/09/20 10:24:16;;;;;;;;;;;18.20;65.20;;;;;;5135602;27;20358;-71
2022/09/20 10:27:00;;;;;;;;;;;18.20;62.70;;;;;;5135853;27;20025;-70
2022/09/20 10:29:32;;;;;;;;;;;18.10;60.10;;;;;;5135799;27;19910;-71
2022/09/20 10:32:04;;;;;;;;;;;17.80;59.40;;;;;;5135586;27;19949;-70
2022/09/20 10:34:48;;;;;;;;;;;17.70;59.50;;;;;;5135743;27;20315;-70
2022/09/20 10:37:22;;;;;;;;;;;17.50;59.70;;;;;;5135560;27;19914;-70
2022/09/20 10:39:56;;;;;;;;;;;17.30;59.50;;;;;;5117471;27;20251;-70
2022/09/20 10:45:25;;;;;;;;;;;17.10;60.90;;;;;;5135846;27;20308;-70
2022/09/20 10:47:57;;;;;;;;;;;17.00;61.40;;;;;;5134786;27;19904;-70
2022/09/20 10:50:29;;;;;;;;;;;16.90;61.20;;;;;;5135068;27;20011;-70
2022/09/20 10:52:55;;;;;;;;;;;16.80;61.50;;;;;;5135277;27;19914;-71
2022/09/20 10:55:36;;;;;;;;;;;16.90;61.90;;;;;;5135050;27;19988;-70
2022/09/20 10:58:15;;;;;;;;;;;16.90;62.70;;;;;;5135142;27;19904;-70
2022/09/20 11:01:01;;;;;;;;;;;17.10;63.80;;;;;;5135178;27;19904;-70
2022/09/20 11:03:26;;;;;;;;;;;17.20;62.90;;;;;;5135097;27;19910;-70
2022/09/20 11:06:16;;;;;;;;;;;17.40;62.60;;;;;;5134958;27;19990;-70
2022/09/20 11:08:42;;;;;;;;;;;17.40;61.30;;;;;;5119580;27;19904;-70
2022/09/20 11:11:12;;;;;;;;;;;17.40;59.90;;;;;;5116577;27;20006;-70
2022/09/20 11:13:44;;;;;;;;;;;17.30;59.70;;;;;;5134958;27;19950;-70
2022/09/20 11:16:15;;;;;;;;;;;17.20;58.90;;;;;;5134958;27;19918;-70
2022/09/20 11:18:49;;;;;;;;;;;17.10;58.50;;;;;;5134792;27;19903;-70
2022/09/20 11:21:27;;;;;;;;;;;17.00;58.30;;;;;;5134666;27;19934;-70
2022/09/20 11:24:01;;;;;;;;;;;16.90;58.80;;;;;;5134707;27;19903;-70
2022/09/20 11:26:42;;;;;;;;;;;16.80;59.00;;;;;;5134540;27;19900;-70
2022/09/20 11:29:31;;;;;;;;;;;16.80;59.30;;;;;;5116185;27;19957;-70
2022/09/20 11:32:01;;;;;;;;;;;16.70;59.60;;;;;;5134575;27;19917;-70
2022/09/20 11:34:36;;;;;;;;;;;16.80;59.70;;;;;;5134364;27;20362;-70
2022/09/20 11:37:02;;;;;;;;;;;16.80;59.70;;;;;;5134359;27;19907;-70
2022/09/20 11:39:34;;;;;;;;;;;16.80;59.50;;;;;;5116077;27;19956;-70
2022/09/20 11:42:00;;;;;;;;;;;16.80;59.40;;;;;;5115845;27;20002;-70
2022/09/20 11:44:26;;;;;;;;;;;16.80;59.50;;;;;;5134312;27;19939;-70
2022/09/20 11:47:14;;;;;;;;;;;16.90;59.70;;;;;;5134115;27;19904;-70
2022/09/20 11:49:53;;;;;;;;;;;16.90;60.80;;;;;;5134312;27;19904;-70
2022/09/20 11:52:37;;;;;;;;;;;17.00;60.50;;;;;;5134266;27;19903;-70
2022/09/20 11:55:13;;;;;;;;;;;17.00;59.90;;;;;;5134090;27;19939;-70
2022/09/20 11:57:39;;;;;;;;;;;17.10;59.50;;;;;;5134122;27;19903;-70
2022/09/20 12:00:07;;;;;;;;;;;17.20;59.40;;;;;;5134053;27;20061;-70
2022/09/20 12:02:39;;;;;;;;;;;17.20;59.30;;;;;;5133922;27;19998;-70
2022/09/20 12:05:05;;;;;;;;;;;17.20;59.20;;;;;;5133945;28;19904;-70
2022/09/20 12:07:36;;;;;;;;;;;17.30;59.00;;;;;;5133893;27;19903;-70
2022/09/20 12:10:07;;;;;;;;;;;17.30;58.60;;;;;;5134074;28;19904;-70
2022/09/20 12:12:32;;;;;;;;;;;17.40;58.80;;;;;;5134056;28;19910;-70
2022/09/20 12:14:59;;;;;;;;;;;17.40;59.00;;;;;;5133876;28;19903;-70
2022/09/20 12:17:43;;;;;;;;;;;17.50;59.00;;;;;;5133856;28;20350;-70
2022/09/20 12:20:27;;;;;;;;;;;17.50;58.70;;;;;;5133744;27;20467;-70
2022/09/20 12:23:13;;;;;;;;;;;17.60;58.40;;;;;;5133926;28;19903;-70
2022/09/20 12:25:38;;;;;;;;;;;17.60;58.60;;;;;;5133833;28;19979;-70
2022/09/20 12:28:12;;;;;;;;;;;17.70;58.80;;;;;;5133941;28;20270;-70
2022/09/20 12:30:38;;;;;;;;;;;17.70;58.60;;;;;;5133724;28;19911;-70
2022/09/20 12:33:03;;;;;;;;;;;17.80;58.30;;;;;;5133561;28;19915;-70
2022/09/20 12:35:35;;;;;;;;;;;17.80;57.70;;;;;;5133670;28;19914;-70
2022/09/20 12:38:19;;;;;;;;;;;17.90;58.10;;;;;;5133533;27;19908;-70
2022/09/20 12:41:17;;;;;;;;;;;18.00;57.70;;;;;;5133564;28;19911;-70
2022/09/20 12:43:48;;;;;;;;;;;18.10;57.70;;;;;;5010575;28;19905;-70
2022/09/20 12:46:31;;;;;;;;;;;18.40;58.40;;;;;;5010558;28;19905;-70
2022/09/20 12:52:49;;;;;;;;;;;18.60;58.10;;;;;;5010731;28;19906;-70
2022/09/20 12:54:48;;;;;;;;;;;18.80;57.00;;;;;;5010730;28;19949;-70
2022/09/20 12:57:26;;;;;;;;;;;18.90;56.90;;;;;;5010505;28;19933;-70
2022/09/20 12:59:56;;;;;;;;;;;19.00;57.10;;;;;;5010631;28;20316;-70
2022/09/20 13:02:40;;;;;;;;;;;19.00;56.60;;;;;;5010626;28;19905;-70
2022/09/20 13:05:24;;;;;;;;;;;19.00;55.30;;;;;;4993921;28;19905;-70
2022/09/20 13:07:58;;;;;;;;;;;18.90;54.50;;;;;;5010798;28;19916;-70
2022/09/20 13:10:27;;;;;;;;;;;18.80;54.70;;;;;;4996080;28;19905;-70
2022/09/20 13:12:57;;;;;;;;;;;18.70;54.40;;;;;;5014078;28;19905;-70
2022/09/20 13:15:23;;;;;;;;;;;18.60;54.20;;;;;;5014042;28;20053;-70
2022/09/20 13:17:50;;;;;;;;;;;18.50;53.60;;;;;;5014049;28;19909;-70
2022/09/20 13:20:19;;;;;;;;;;;18.30;53.80;;;;;;5124850;27;19957;-70
2022/09/20 13:22:46;;;;;;;;;;;18.30;54.50;;;;;;5137034;27;19929;-70
2022/09/20 13:25:13;;;;;;;;;;;18.20;54.20;;;;;;5136996;27;19998;-70
2022/09/20 13:27:50;;;;;;;;;;;18.10;54.10;;;;;;5137053;27;19903;-70
2022/09/20 13:30:16;;;;;;;;;;;18.10;54.70;;;;;;5136923;27;19925;-70
2022/09/20 13:32:42;;;;;;;;;;;18.10;54.70;;;;;;5118071;27;19915;-70
2022/09/20 13:35:13;;;;;;;;;;;18.10;54.90;;;;;;5136719;27;19930;-70
2022/09/20 13:37:45;;;;;;;;;;;18.10;54.80;;;;;;5136738;27;20315;-70
2022/09/20 13:40:32;;;;;;;;;;;18.10;54.50;;;;;;5136992;27;19951;-70
2022/09/20 13:42:59;;;;;;;;;;;18.30;55.30;;;;;;5136726;27;19904;-70
2022/09/20 13:45:25;;;;;;;;;;;18.40;54.90;;;;;;5136666;27;19956;-70
2022/09/20 13:47:53;;;;;;;;;;;18.50;54.40;;;;;;5136436;27;20349;-70
2022/09/20 13:50:21;;;;;;;;;;;18.70;54.60;;;;;;5136369;27;19931;-70
2022/09/20 13:52:48;;;;;;;;;;;18.80;54.70;;;;;;5136331;27;19910;-70
2022/09/20 13:55:32;;;;;;;;;;;18.90;54.70;;;;;;5136203;27;19903;-70
2022/09/20 13:58:01;;;;;;;;;;;18.90;53.60;;;;;;5136329;27;19908;-70
2022/09/20 14:00:28;;;;;;;;;;;18.80;53.00;;;;;;5117791;27;19904;-70
2022/09/20 14:02:54;;;;;;;;;;;18.80;52.90;;;;;;5136153;27;19947;-70
2022/09/20 14:05:22;;;;;;;;;;;18.70;53.20;;;;;;5136087;27;19998;-70
2022/09/20 14:07:48;;;;;;;;;;;18.70;53.60;;;;;;5135998;27;19911;-70
2022/09/20 14:10:27;;;;;;;;;;;18.70;53.80;;;;;;5135992;27;19950;-70
2022/09/20 14:12:54;;;;;;;;;;;18.70;54.40;;;;;;5136212;27;20389;-70
2022/09/20 14:15:20;;;;;;;;;;;18.70;54.60;;;;;;5135773;27;20314;-70
2022/09/20 14:17:46;;;;;;;;;;;18.80;55.10;;;;;;5135524;27;19910;-70
2022/09/20 14:20:14;;;;;;;;;;;18.90;54.50;;;;;;5135785;27;19910;-70
2022/09/20 14:22:40;;;;;;;;;;;19.00;55.10;;;;;;5116255;27;20369;-70
2022/09/20 14:25:11;;;;;;;;;;;19.20;55.20;;;;;;5117293;27;19958;-70
2022/09/20 14:27:37;;;;;;;;;;;19.40;56.00;;;;;;5135734;27;19904;-70
2022/09/20 14:30:04;;;;;;;;;;;19.70;55.60;;;;;;5135579;27;19904;-70
2022/09/20 14:32:36;;;;;;;;;;;19.90;55.50;;;;;;5135369;27;20282;-70
2022/09/20 14:35:01;;;;;;;;;;;20.20;56.10;;;;;;5135475;27;19997;-70
2022/09/20 14:37:30;;;;;;;;;;;20.50;54.90;;;;;;5135593;27;20420;-70
2022/09/20 14:40:01;;;;;;;;;;;20.80;54.70;;;;;;5135377;27;19914;-70
2022/09/20 14:42:34;;;;;;;;;;;21.10;55.10;;;;;;5135292;27;20362;-70
2022/09/20 14:45:00;;;;;;;;;;;21.30;54.90;;;;;;5135287;27;19910;-70
2022/09/20 14:47:50;;;;;;;;;;;21.60;54.30;;;;;;5135211;27;19938;-70
2022/09/20 14:50:37;;;;;;;;;;;21.90;54.70;;;;;;5135145;27;20389;-70
2022/09/20 14:53:06;;;;;;;;;;;22.10;53.50;;;;;;5134988;27;19910;-70
2022/09/20 14:55:32;;;;;;;;;;;22.40;51.80;;;;;;5135075;27;19915;-70
2022/09/20 14:58:03;;;;;;;;;;;22.50;51.70;;;;;;5135115;27;20362;-70
2022/09/20 15:00:29;;;;;;;;;;;22.80;52.60;;;;;;5135079;27;19990;-70
2022/09/20 15:03:00;;;;;;;;;;;23.10;52.40;;;;;;5135142;27;19991;-70